createdAt,value
2017-11-25T00:00:00.808Z,793.86
2017-11-25T00:00:04.857Z,793.84
2017-11-25T00:00:09.014Z,793.84
2017-11-25T00:00:13.309Z,793.85
2017-11-25T00:00:17.574Z,793.83
2017-11-25T00:00:21.951Z,793.83
2017-11-25T00:00:26.341Z,793.83
2017-11-25T00:00:30.706Z,793.84
2017-11-25T00:00:34.974Z,793.83
2017-11-25T00:00:39.367Z,793.83
2017-11-25T00:00:43.685Z,793.83
2017-11-25T00:00:47.966Z,793.83
2017-11-25T00:00:52.366Z,793.82
2017-11-25T00:00:56.627Z,793.81
2017-11-25T00:01:00.881Z,793.8
2017-11-25T00:01:05.314Z,793.77
2017-11-25T00:01:09.681Z,793.81
2017-11-25T00:01:14.051Z,793.81
2017-11-25T00:01:18.433Z,793.83
2017-11-25T00:01:22.799Z,793.8
2017-11-25T00:01:27.170Z,793.77
2017-11-25T00:01:31.473Z,793.77
2017-11-25T00:01:35.481Z,793.77
2017-11-25T00:01:39.735Z,793.76
2017-11-25T00:01:43.893Z,793.75
2017-11-25T00:01:48.292Z,793.79
2017-11-25T00:01:52.672Z,793.77
2017-11-25T00:01:56.990Z,793.76
2017-11-25T00:02:01.364Z,793.77
2017-11-25T00:02:05.532Z,793.74
2017-11-25T00:02:09.810Z,793.74
2017-11-25T00:02:14.081Z,793.72
2017-11-25T00:02:18.469Z,793.72
2017-11-25T00:02:22.616Z,793.72
2017-11-25T00:02:26.876Z,793.71
2017-11-25T00:02:31.134Z,793.74
2017-11-25T00:02:35.400Z,793.73
2017-11-25T00:02:39.460Z,793.68
2017-11-25T00:02:43.494Z,793.69
2017-11-25T00:02:47.770Z,793.67
2017-11-25T00:02:52.063Z,793.71
2017-11-25T00:02:56.325Z,793.62
2017-11-25T00:03:00.584Z,793.65
2017-11-25T00:03:04.645Z,793.63
2017-11-25T00:03:08.914Z,793.61
2017-11-25T00:03:13.185Z,793.67
2017-11-25T00:03:17.560Z,793.63
2017-11-25T00:03:21.715Z,793.62
2017-11-25T00:03:25.885Z,793.6
2017-11-25T00:03:30.144Z,793.6
2017-11-25T00:03:34.424Z,793.57
2017-11-25T00:03:38.695Z,793.55
2017-11-25T00:03:42.971Z,793.55
2017-11-25T00:03:47.233Z,793.59
2017-11-25T00:03:51.498Z,793.56
2017-11-25T00:03:55.883Z,793.57
2017-11-25T00:04:00.139Z,793.52
2017-11-25T00:04:04.525Z,793.54
2017-11-25T00:04:08.928Z,793.54
2017-11-25T00:04:13.083Z,793.55
2017-11-25T00:04:17.466Z,793.52
2017-11-25T00:04:21.872Z,793.51
2017-11-25T00:04:26.139Z,793.52
2017-11-25T00:04:30.519Z,793.53
2017-11-25T00:04:34.943Z,793.51
2017-11-25T00:04:38.986Z,793.49
2017-11-25T00:04:43.363Z,793.47
2017-11-25T00:04:47.753Z,793.52
2017-11-25T00:04:52.015Z,793.47
2017-11-25T00:04:56.388Z,793.49
2017-11-25T00:05:00.671Z,793.51
2017-11-25T00:05:04.945Z,793.5
2017-11-25T00:05:09.228Z,793.48
2017-11-25T00:05:13.491Z,793.46
2017-11-25T00:05:17.757Z,793.47
2017-11-25T00:05:21.908Z,793.46
2017-11-25T00:05:26.297Z,793.47
2017-11-25T00:05:30.673Z,793.44
2017-11-25T00:05:34.831Z,793.44
2017-11-25T00:05:39.102Z,793.47
2017-11-25T00:05:43.484Z,793.43
2017-11-25T00:05:47.749Z,793.47
2017-11-25T00:05:52.077Z,793.46
2017-11-25T00:05:56.449Z,793.45
2017-11-25T00:06:00.824Z,793.43
2017-11-25T00:06:05.451Z,793.46
2017-11-25T00:06:09.705Z,793.45
2017-11-25T00:06:13.992Z,793.39
2017-11-25T00:06:18.357Z,793.45
2017-11-25T00:06:22.711Z,793.47
2017-11-25T00:06:27.117Z,793.45
2017-11-25T00:06:31.499Z,793.44
2017-11-25T00:06:35.889Z,793.41
2017-11-25T00:06:40.154Z,793.43
2017-11-25T00:06:44.408Z,793.44
2017-11-25T00:06:48.767Z,793.42
2017-11-25T00:06:52.914Z,793.39
2017-11-25T00:06:57.309Z,793.44
2017-11-25T00:07:01.806Z,793.44
2017-11-25T00:07:05.973Z,793.44
2017-11-25T00:07:10.127Z,793.42
2017-11-25T00:07:14.404Z,793.43
2017-11-25T00:07:18.780Z,793.42
2017-11-25T00:07:23.156Z,793.44
2017-11-25T00:07:27.430Z,793.44
2017-11-25T00:07:31.693Z,793.46
2017-11-25T00:07:35.973Z,793.43
2017-11-25T00:07:40.345Z,793.46
2017-11-25T00:07:44.503Z,793.44
2017-11-25T00:07:48.788Z,793.43
2017-11-25T00:07:52.831Z,793.42
2017-11-25T00:07:57.099Z,793.44
2017-11-25T00:08:01.260Z,793.44
2017-11-25T00:08:05.435Z,793.44
2017-11-25T00:08:09.842Z,793.42
2017-11-25T00:08:14.018Z,793.42
2017-11-25T00:08:18.387Z,793.41
2017-11-25T00:08:22.651Z,793.41
2017-11-25T00:08:26.950Z,793.46
2017-11-25T00:08:31.322Z,793.43
2017-11-25T00:08:35.621Z,793.45
2017-11-25T00:08:40.010Z,793.44
2017-11-25T00:08:44.375Z,793.44
2017-11-25T00:08:48.530Z,793.46
2017-11-25T00:08:52.798Z,793.45
2017-11-25T00:08:57.062Z,793.45
2017-11-25T00:09:01.435Z,793.45
2017-11-25T00:09:05.870Z,793.46
2017-11-25T00:09:10.252Z,793.46
2017-11-25T00:09:14.497Z,793.47
2017-11-25T00:09:18.783Z,793.46
2017-11-25T00:09:22.968Z,793.46
2017-11-25T00:09:27.247Z,793.46
2017-11-25T00:09:31.633Z,793.43
2017-11-25T00:09:35.901Z,793.45
2017-11-25T00:09:40.158Z,793.45
2017-11-25T00:09:44.423Z,793.47
2017-11-25T00:09:48.816Z,793.46
2017-11-25T00:09:52.746Z,793.44
2017-11-25T00:09:56.912Z,793.46
2017-11-25T00:10:01.171Z,793.44
2017-11-25T00:10:05.546Z,793.47
2017-11-25T00:10:09.715Z,793.44
2017-11-25T00:10:14.087Z,793.45
2017-11-25T00:10:18.348Z,793.46
2017-11-25T00:10:22.635Z,793.47
2017-11-25T00:10:26.805Z,793.45
2017-11-25T00:10:31.178Z,793.46
2017-11-25T00:10:35.444Z,793.45
2017-11-25T00:10:39.829Z,793.47
2017-11-25T00:10:44.091Z,793.45
2017-11-25T00:10:48.472Z,793.46
2017-11-25T00:10:52.719Z,793.49
2017-11-25T00:10:57.121Z,793.43
2017-11-25T00:11:01.281Z,793.46
2017-11-25T00:11:05.552Z,793.45
2017-11-25T00:11:09.810Z,793.44
2017-11-25T00:11:14.071Z,793.4
2017-11-25T00:11:18.440Z,793.46
2017-11-25T00:11:22.690Z,793.44
2017-11-25T00:11:27.086Z,793.47
2017-11-25T00:11:31.344Z,793.48
2017-11-25T00:11:35.713Z,793.46
2017-11-25T00:11:39.751Z,793.53
2017-11-25T00:11:43.920Z,793.46
2017-11-25T00:11:48.173Z,793.51
2017-11-25T00:11:52.442Z,793.5
2017-11-25T00:11:56.826Z,793.49
2017-11-25T00:12:01.202Z,793.5
2017-11-25T00:12:05.936Z,793.48
2017-11-25T00:12:10.205Z,793.48
2017-11-25T00:12:14.579Z,793.49
2017-11-25T00:12:18.839Z,793.5
2017-11-25T00:12:23.226Z,793.5
2017-11-25T00:12:27.618Z,793.48
2017-11-25T00:12:31.993Z,793.46
2017-11-25T00:12:36.312Z,793.51
2017-11-25T00:12:40.366Z,793.49
2017-11-25T00:12:44.760Z,793.49
2017-11-25T00:12:49.067Z,793.49
2017-11-25T00:12:53.321Z,793.55
2017-11-25T00:12:57.587Z,793.5
2017-11-25T00:13:01.762Z,793.52
2017-11-25T00:13:05.934Z,793.5
2017-11-25T00:13:10.216Z,793.5
2017-11-25T00:13:14.354Z,793.5
2017-11-25T00:13:18.738Z,793.52
2017-11-25T00:13:23.007Z,793.52
2017-11-25T00:13:27.289Z,793.53
2017-11-25T00:13:31.686Z,793.51
2017-11-25T00:13:35.829Z,793.55
2017-11-25T00:13:40.094Z,793.5
2017-11-25T00:13:44.463Z,793.53
2017-11-25T00:13:48.720Z,793.53
2017-11-25T00:13:52.992Z,793.55
2017-11-25T00:13:57.366Z,793.48
2017-11-25T00:14:01.533Z,793.54
2017-11-25T00:14:05.921Z,793.56
2017-11-25T00:14:10.197Z,793.53
2017-11-25T00:14:14.343Z,793.59
2017-11-25T00:14:18.721Z,793.54
2017-11-25T00:14:22.871Z,793.55
2017-11-25T00:14:27.257Z,793.54
2017-11-25T00:14:31.650Z,793.55
2017-11-25T00:14:35.799Z,793.54
2017-11-25T00:14:40.086Z,793.56
2017-11-25T00:14:44.395Z,793.59
2017-11-25T00:14:48.759Z,793.61
2017-11-25T00:14:53.016Z,793.57
2017-11-25T00:14:57.435Z,793.63
2017-11-25T00:15:01.844Z,793.6
2017-11-25T00:15:06.231Z,793.59
2017-11-25T00:15:10.521Z,793.57
2017-11-25T00:15:14.896Z,793.51
2017-11-25T00:15:19.152Z,793.56
2017-11-25T00:15:23.538Z,793.56
2017-11-25T00:15:27.815Z,793.55
2017-11-25T00:15:32.213Z,793.59
2017-11-25T00:15:36.590Z,793.58
2017-11-25T00:15:40.745Z,793.58
2017-11-25T00:15:45.044Z,793.61
2017-11-25T00:15:49.323Z,793.6
2017-11-25T00:15:53.470Z,793.59
2017-11-25T00:15:57.850Z,793.6
2017-11-25T00:16:02.491Z,793.6
2017-11-25T00:16:06.863Z,793.6
2017-11-25T00:16:11.241Z,793.6
2017-11-25T00:16:15.280Z,793.6
2017-11-25T00:16:19.660Z,793.62
2017-11-25T00:16:23.940Z,793.64
2017-11-25T00:16:28.110Z,793.64
2017-11-25T00:16:32.296Z,793.61
2017-11-25T00:16:36.446Z,793.63
2017-11-25T00:16:40.832Z,793.61
2017-11-25T00:16:45.105Z,793.67
2017-11-25T00:16:49.476Z,793.64
2017-11-25T00:16:53.741Z,793.64
2017-11-25T00:16:58.112Z,793.63
2017-11-25T00:17:02.631Z,793.67
2017-11-25T00:17:06.923Z,793.63
2017-11-25T00:17:11.270Z,793.63
2017-11-25T00:17:15.529Z,793.65
2017-11-25T00:17:19.801Z,793.65
2017-11-25T00:17:24.062Z,793.64
2017-11-25T00:17:28.433Z,793.64
2017-11-25T00:17:32.803Z,793.64
2017-11-25T00:17:37.100Z,793.68
2017-11-25T00:17:41.364Z,793.69
2017-11-25T00:17:45.556Z,793.68
2017-11-25T00:17:49.931Z,793.69
2017-11-25T00:17:54.112Z,793.65
2017-11-25T00:17:58.384Z,793.73
2017-11-25T00:18:02.459Z,793.69
2017-11-25T00:18:06.713Z,793.69
2017-11-25T00:18:11.125Z,793.72
2017-11-25T00:18:15.400Z,793.73
2017-11-25T00:18:19.339Z,793.7
2017-11-25T00:18:23.735Z,793.64
2017-11-25T00:18:28.109Z,793.7
2017-11-25T00:18:32.476Z,793.73
2017-11-25T00:18:36.659Z,793.74
2017-11-25T00:18:41.032Z,793.72
2017-11-25T00:18:45.417Z,793.71
2017-11-25T00:18:49.805Z,793.7
2017-11-25T00:18:54.086Z,793.65
2017-11-25T00:18:58.462Z,793.72
2017-11-25T00:19:02.835Z,793.76
2017-11-25T00:19:07.207Z,793.7
2017-11-25T00:19:11.465Z,793.65
2017-11-25T00:19:15.847Z,793.73
2017-11-25T00:19:20.027Z,793.72
2017-11-25T00:19:24.199Z,793.76
2017-11-25T00:19:28.460Z,793.78
2017-11-25T00:19:32.754Z,793.76
2017-11-25T00:19:37.128Z,793.76
2017-11-25T00:19:41.390Z,793.7
2017-11-25T00:19:45.579Z,793.74
2017-11-25T00:19:49.729Z,793.76
2017-11-25T00:19:53.995Z,793.73
2017-11-25T00:19:58.253Z,793.75
2017-11-25T00:20:02.636Z,793.74
2017-11-25T00:20:06.921Z,793.75
2017-11-25T00:20:11.202Z,793.73
2017-11-25T00:20:15.370Z,793.66
2017-11-25T00:20:19.740Z,793.7
2017-11-25T00:20:23.898Z,793.76
2017-11-25T00:20:28.167Z,793.78
2017-11-25T00:20:32.533Z,793.78
2017-11-25T00:20:36.699Z,793.73
2017-11-25T00:20:40.963Z,793.76
2017-11-25T00:20:45.339Z,793.72
2017-11-25T00:20:49.539Z,793.76
2017-11-25T00:20:53.938Z,793.8
2017-11-25T00:20:58.311Z,793.76
2017-11-25T00:21:02.535Z,793.76
2017-11-25T00:21:06.686Z,793.79
2017-11-25T00:21:11.062Z,793.8
2017-11-25T00:21:15.336Z,793.78
2017-11-25T00:21:19.710Z,793.79
2017-11-25T00:21:23.753Z,793.78
2017-11-25T00:21:27.928Z,793.77
2017-11-25T00:21:31.969Z,793.79
2017-11-25T00:21:36.224Z,793.78
2017-11-25T00:21:40.407Z,793.73
2017-11-25T00:21:44.776Z,793.76
2017-11-25T00:21:49.051Z,793.81
2017-11-25T00:21:53.484Z,793.79
2017-11-25T00:21:57.659Z,793.81
2017-11-25T00:22:02.201Z,793.8
2017-11-25T00:22:06.348Z,793.81
2017-11-25T00:22:10.521Z,793.8
2017-11-25T00:22:14.807Z,793.78
2017-11-25T00:22:19.061Z,793.79
2017-11-25T00:22:23.435Z,793.82
2017-11-25T00:22:27.722Z,793.8
2017-11-25T00:22:32.085Z,793.77
2017-11-25T00:22:36.254Z,793.81
2017-11-25T00:22:40.530Z,793.79
2017-11-25T00:22:44.819Z,793.81
2017-11-25T00:22:49.061Z,793.8
2017-11-25T00:22:53.443Z,793.81
2017-11-25T00:22:57.722Z,793.79
2017-11-25T00:23:01.990Z,793.79
2017-11-25T00:23:06.391Z,793.77
2017-11-25T00:23:10.751Z,793.84
2017-11-25T00:23:15.039Z,793.82
2017-11-25T00:23:19.465Z,793.81
2017-11-25T00:23:23.737Z,793.84
2017-11-25T00:23:27.883Z,793.82
2017-11-25T00:23:32.250Z,793.82
2017-11-25T00:23:36.628Z,793.82
2017-11-25T00:23:40.895Z,793.81
2017-11-25T00:23:45.157Z,793.85
2017-11-25T00:23:49.552Z,793.84
2017-11-25T00:23:53.698Z,793.73
2017-11-25T00:23:57.977Z,793.75
2017-11-25T00:24:02.258Z,793.82
2017-11-25T00:24:06.634Z,793.83
2017-11-25T00:24:10.898Z,793.82
2017-11-25T00:24:15.269Z,793.84
2017-11-25T00:24:19.563Z,793.81
2017-11-25T00:24:23.831Z,793.8
2017-11-25T00:24:28.085Z,793.82
2017-11-25T00:24:32.456Z,793.82
2017-11-25T00:24:36.838Z,793.79
2017-11-25T00:24:41.226Z,793.82
2017-11-25T00:24:45.391Z,793.82
2017-11-25T00:24:49.773Z,793.83
2017-11-25T00:24:53.926Z,793.82
2017-11-25T00:24:58.189Z,793.85
2017-11-25T00:25:02.557Z,793.84
2017-11-25T00:25:06.835Z,793.83
2017-11-25T00:25:10.985Z,793.79
2017-11-25T00:25:15.258Z,793.85
2017-11-25T00:25:19.409Z,793.82
2017-11-25T00:25:23.805Z,793.81
2017-11-25T00:25:28.194Z,793.82
2017-11-25T00:25:32.580Z,793.79
2017-11-25T00:25:36.744Z,793.78
2017-11-25T00:25:40.951Z,793.82
2017-11-25T00:25:45.213Z,793.82
2017-11-25T00:25:49.260Z,793.78
2017-11-25T00:25:53.639Z,793.8
2017-11-25T00:25:58.017Z,793.8
2017-11-25T00:26:02.283Z,793.79
2017-11-25T00:26:06.659Z,793.77
2017-11-25T00:26:11.058Z,793.76
2017-11-25T00:26:15.427Z,793.77
2017-11-25T00:26:19.574Z,793.79
2017-11-25T00:26:23.723Z,793.79
2017-11-25T00:26:27.880Z,793.79
2017-11-25T00:26:32.121Z,793.78
2017-11-25T00:26:36.497Z,793.78
2017-11-25T00:26:40.770Z,793.75
2017-11-25T00:26:44.902Z,793.77
2017-11-25T00:26:48.937Z,793.74
2017-11-25T00:26:53.213Z,793.73
2017-11-25T00:26:57.508Z,793.73
2017-11-25T00:27:01.802Z,793.72
2017-11-25T00:27:05.852Z,793.7
2017-11-25T00:27:09.892Z,793.75
2017-11-25T00:27:14.265Z,793.73
2017-11-25T00:27:18.529Z,793.73
2017-11-25T00:27:22.789Z,793.74
2017-11-25T00:27:27.040Z,793.72
2017-11-25T00:27:31.310Z,793.71
2017-11-25T00:27:35.136Z,793.7
2017-11-25T00:27:39.513Z,793.69
2017-11-25T00:27:43.909Z,793.66
2017-11-25T00:27:48.229Z,793.66
2017-11-25T00:27:52.501Z,793.68
2017-11-25T00:27:56.544Z,793.69
2017-11-25T00:28:00.855Z,793.7
2017-11-25T00:28:05.256Z,793.69
2017-11-25T00:28:09.660Z,793.69
2017-11-25T00:28:13.793Z,793.66
2017-11-25T00:28:18.073Z,793.65
2017-11-25T00:28:22.472Z,793.68
2017-11-25T00:28:26.751Z,793.62
2017-11-25T00:28:31.118Z,793.69
2017-11-25T00:28:35.153Z,793.65
2017-11-25T00:28:39.411Z,793.66
2017-11-25T00:28:43.779Z,793.67
2017-11-25T00:28:48.059Z,793.64
2017-11-25T00:28:52.217Z,793.69
2017-11-25T00:28:56.374Z,793.62
2017-11-25T00:29:00.780Z,793.68
2017-11-25T00:29:05.091Z,793.62
2017-11-25T00:29:09.464Z,793.6
2017-11-25T00:29:13.616Z,793.64
2017-11-25T00:29:17.879Z,793.63
2017-11-25T00:29:22.146Z,793.62
2017-11-25T00:29:26.428Z,793.61
2017-11-25T00:29:30.792Z,793.58
2017-11-25T00:29:35.166Z,793.6
2017-11-25T00:29:39.442Z,793.63
2017-11-25T00:29:43.708Z,793.56
2017-11-25T00:29:48.083Z,793.57
2017-11-25T00:29:52.232Z,793.56
2017-11-25T00:29:56.627Z,793.55
2017-11-25T00:30:01.004Z,793.54
2017-11-25T00:30:05.378Z,793.53
2017-11-25T00:30:09.786Z,793.53
2017-11-25T00:30:14.058Z,793.56
2017-11-25T00:30:18.313Z,793.57
2017-11-25T00:30:22.593Z,793.55
2017-11-25T00:30:26.629Z,793.55
2017-11-25T00:30:30.905Z,793.54
2017-11-25T00:30:35.281Z,793.53
2017-11-25T00:30:39.425Z,793.55
2017-11-25T00:30:43.694Z,793.54
2017-11-25T00:30:47.956Z,793.51
2017-11-25T00:30:52.219Z,793.5
2017-11-25T00:30:56.592Z,793.52
2017-11-25T00:31:00.883Z,793.51
2017-11-25T00:31:05.357Z,793.52
2017-11-25T00:31:09.652Z,793.52
2017-11-25T00:31:14.106Z,793.51
2017-11-25T00:31:18.385Z,793.49
2017-11-25T00:31:22.643Z,793.51
2017-11-25T00:31:27.017Z,793.45
2017-11-25T00:31:31.091Z,793.44
2017-11-25T00:31:35.363Z,793.44
2017-11-25T00:31:39.747Z,793.49
2017-11-25T00:31:44.013Z,793.5
2017-11-25T00:31:48.397Z,793.49
2017-11-25T00:31:52.711Z,793.47
2017-11-25T00:31:57.109Z,793.47
2017-11-25T00:32:01.491Z,793.46
2017-11-25T00:32:05.553Z,793.49
2017-11-25T00:32:09.667Z,793.45
2017-11-25T00:32:14.043Z,793.47
2017-11-25T00:32:18.307Z,793.46
2017-11-25T00:32:22.711Z,793.45
2017-11-25T00:32:27.083Z,793.45
2017-11-25T00:32:31.240Z,793.44
2017-11-25T00:32:35.507Z,793.43
2017-11-25T00:32:39.867Z,793.42
2017-11-25T00:32:44.152Z,793.45
2017-11-25T00:32:48.521Z,793.43
2017-11-25T00:32:52.678Z,793.41
2017-11-25T00:32:56.969Z,793.44
2017-11-25T00:33:01.352Z,793.45
2017-11-25T00:33:06.044Z,793.42
2017-11-25T00:33:10.437Z,793.44
2017-11-25T00:33:14.595Z,793.39
2017-11-25T00:33:18.970Z,793.39
2017-11-25T00:33:23.377Z,793.41
2017-11-25T00:33:27.518Z,793.39
2017-11-25T00:33:31.790Z,793.39
2017-11-25T00:33:35.823Z,793.37
2017-11-25T00:33:40.203Z,793.37
2017-11-25T00:33:44.458Z,793.39
2017-11-25T00:33:48.738Z,793.38
2017-11-25T00:33:52.905Z,793.36
2017-11-25T00:33:57.268Z,793.39
2017-11-25T00:34:01.538Z,793.36
2017-11-25T00:34:05.791Z,793.37
2017-11-25T00:34:09.946Z,793.35
2017-11-25T00:34:14.218Z,793.34
2017-11-25T00:34:18.585Z,793.33
2017-11-25T00:34:22.867Z,793.35
2017-11-25T00:34:27.163Z,793.35
2017-11-25T00:34:31.356Z,793.31
2017-11-25T00:34:35.521Z,793.27
2017-11-25T00:34:39.909Z,793.26
2017-11-25T00:34:44.348Z,793.26
2017-11-25T00:34:48.617Z,793.25
2017-11-25T00:34:52.645Z,793.27
2017-11-25T00:34:57.088Z,793.24
2017-11-25T00:35:01.455Z,793.24
2017-11-25T00:35:05.618Z,793.3
2017-11-25T00:35:10.009Z,793.29
2017-11-25T00:35:14.294Z,793.28
2017-11-25T00:35:18.569Z,793.28
2017-11-25T00:35:22.831Z,793.26
2017-11-25T00:35:27.207Z,793.24
2017-11-25T00:35:31.476Z,793.23
2017-11-25T00:35:35.648Z,793.23
2017-11-25T00:35:39.910Z,793.2
2017-11-25T00:35:44.276Z,793.24
2017-11-25T00:35:48.427Z,793.25
2017-11-25T00:35:52.677Z,793.24
2017-11-25T00:35:56.931Z,793.22
2017-11-25T00:36:01.127Z,793.23
2017-11-25T00:36:05.703Z,793.18
2017-11-25T00:36:09.750Z,793.18
2017-11-25T00:36:14.133Z,793.2
2017-11-25T00:36:18.408Z,793.23
2017-11-25T00:36:22.672Z,793.16
2017-11-25T00:36:27.071Z,793.13
2017-11-25T00:36:31.349Z,793.11
2017-11-25T00:36:35.649Z,793.14
2017-11-25T00:36:40.027Z,793.15
2017-11-25T00:36:44.186Z,793.14
2017-11-25T00:36:48.449Z,793.19
2017-11-25T00:36:52.628Z,793.14
2017-11-25T00:36:56.877Z,793.14
2017-11-25T00:37:01.250Z,793.14
2017-11-25T00:37:05.415Z,793.08
2017-11-25T00:37:09.776Z,793.09
2017-11-25T00:37:14.085Z,793.08
2017-11-25T00:37:18.472Z,793.12
2017-11-25T00:37:22.848Z,793.09
2017-11-25T00:37:26.991Z,793.1
2017-11-25T00:37:31.156Z,793.08
2017-11-25T00:37:35.323Z,793.09
2017-11-25T00:37:39.718Z,793.07
2017-11-25T00:37:43.979Z,793.08
2017-11-25T00:37:48.238Z,793.06
2017-11-25T00:37:52.627Z,793.05
2017-11-25T00:37:57.005Z,793.06
2017-11-25T00:38:01.377Z,793.06
2017-11-25T00:38:05.654Z,793.05
2017-11-25T00:38:09.920Z,793.06
2017-11-25T00:38:14.282Z,793.06
2017-11-25T00:38:18.577Z,793.05
2017-11-25T00:38:22.850Z,793.04
2017-11-25T00:38:27.127Z,793.07
2017-11-25T00:38:31.572Z,793.02
2017-11-25T00:38:35.833Z,793.02
2017-11-25T00:38:39.983Z,793.03
2017-11-25T00:38:44.372Z,792.99
2017-11-25T00:38:48.640Z,793.02
2017-11-25T00:38:52.919Z,793.02
2017-11-25T00:38:57.090Z,792.97
2017-11-25T00:39:01.338Z,793
2017-11-25T00:39:05.912Z,792.97
2017-11-25T00:39:10.167Z,792.94
2017-11-25T00:39:14.561Z,792.93
2017-11-25T00:39:18.833Z,792.92
2017-11-25T00:39:23.192Z,792.93
2017-11-25T00:39:27.467Z,792.97
2017-11-25T00:39:31.742Z,792.97
2017-11-25T00:39:36.019Z,792.95
2017-11-25T00:39:40.271Z,792.94
2017-11-25T00:39:44.546Z,792.91
2017-11-25T00:39:48.908Z,792.95
2017-11-25T00:39:52.962Z,792.93
2017-11-25T00:39:57.380Z,792.94
2017-11-25T00:40:01.644Z,792.94
2017-11-25T00:40:05.808Z,792.91
2017-11-25T00:40:09.984Z,792.94
2017-11-25T00:40:14.257Z,792.9
2017-11-25T00:40:18.640Z,792.87
2017-11-25T00:40:23.025Z,792.87
2017-11-25T00:40:27.400Z,792.84
2017-11-25T00:40:31.564Z,792.9
2017-11-25T00:40:35.955Z,792.89
2017-11-25T00:40:40.322Z,792.86
2017-11-25T00:40:44.360Z,792.91
2017-11-25T00:40:48.752Z,792.85
2017-11-25T00:40:52.950Z,792.88
2017-11-25T00:40:57.094Z,792.83
2017-11-25T00:41:01.474Z,792.86
2017-11-25T00:41:05.727Z,792.88
2017-11-25T00:41:09.998Z,792.86
2017-11-25T00:41:14.414Z,792.82
2017-11-25T00:41:18.669Z,792.85
2017-11-25T00:41:23.035Z,792.85
2017-11-25T00:41:27.440Z,792.79
2017-11-25T00:41:31.605Z,792.76
2017-11-25T00:41:35.977Z,792.83
2017-11-25T00:41:40.369Z,792.82
2017-11-25T00:41:44.651Z,792.81
2017-11-25T00:41:49.034Z,792.82
2017-11-25T00:41:53.302Z,792.81
2017-11-25T00:41:57.562Z,792.8
2017-11-25T00:42:01.947Z,792.78
2017-11-25T00:42:06.388Z,792.81
2017-11-25T00:42:10.652Z,792.81
2017-11-25T00:42:15.032Z,792.79
2017-11-25T00:42:19.423Z,792.78
2017-11-25T00:42:23.670Z,792.81
2017-11-25T00:42:27.921Z,792.78
2017-11-25T00:42:32.193Z,792.7
2017-11-25T00:42:36.451Z,792.79
2017-11-25T00:42:40.719Z,792.83
2017-11-25T00:42:44.870Z,792.75
2017-11-25T00:42:49.120Z,792.78
2017-11-25T00:42:53.147Z,792.77
2017-11-25T00:42:57.303Z,792.76
2017-11-25T00:43:01.455Z,792.73
2017-11-25T00:43:05.918Z,792.75
2017-11-25T00:43:10.200Z,792.73
2017-11-25T00:43:14.354Z,792.76
2017-11-25T00:43:18.507Z,792.73
2017-11-25T00:43:22.685Z,792.74
2017-11-25T00:43:27.003Z,792.73
2017-11-25T00:43:31.149Z,792.67
2017-11-25T00:43:35.537Z,792.7
2017-11-25T00:43:39.803Z,792.71
2017-11-25T00:43:44.173Z,792.7
2017-11-25T00:43:48.436Z,792.7
2017-11-25T00:43:52.719Z,792.72
2017-11-25T00:43:56.875Z,792.72
2017-11-25T00:44:01.145Z,792.72
2017-11-25T00:44:05.634Z,792.69
2017-11-25T00:44:09.912Z,792.69
2017-11-25T00:44:14.081Z,792.68
2017-11-25T00:44:18.254Z,792.7
2017-11-25T00:44:22.621Z,792.64
2017-11-25T00:44:26.660Z,792.64
2017-11-25T00:44:31.033Z,792.69
2017-11-25T00:44:35.186Z,792.66
2017-11-25T00:44:39.463Z,792.67
2017-11-25T00:44:43.730Z,792.67
2017-11-25T00:44:48.113Z,792.68
2017-11-25T00:44:52.382Z,792.66
2017-11-25T00:44:56.787Z,792.65
2017-11-25T00:45:01.148Z,792.65
2017-11-25T00:45:05.582Z,792.63
2017-11-25T00:45:09.852Z,792.62
2017-11-25T00:45:14.133Z,792.62
2017-11-25T00:45:18.501Z,792.59
2017-11-25T00:45:22.927Z,792.57
2017-11-25T00:45:27.331Z,792.58
2017-11-25T00:45:31.596Z,792.55
2017-11-25T00:45:36.008Z,792.56
2017-11-25T00:45:40.384Z,792.61
2017-11-25T00:45:44.781Z,792.57
2017-11-25T00:45:48.816Z,792.57
2017-11-25T00:45:53.178Z,792.58
2017-11-25T00:45:57.578Z,792.55
2017-11-25T00:46:01.841Z,792.6
2017-11-25T00:46:06.224Z,792.54
2017-11-25T00:46:10.636Z,792.51
2017-11-25T00:46:14.938Z,792.55
2017-11-25T00:46:19.294Z,792.52
2017-11-25T00:46:23.560Z,792.52
2017-11-25T00:46:27.721Z,792.51
2017-11-25T00:46:32.094Z,792.52
2017-11-25T00:46:36.247Z,792.5
2017-11-25T00:46:40.534Z,792.48
2017-11-25T00:46:44.796Z,792.43
2017-11-25T00:46:49.061Z,792.45
2017-11-25T00:46:53.456Z,792.46
2017-11-25T00:46:57.812Z,792.47
2017-11-25T00:47:02.056Z,792.41
2017-11-25T00:47:06.354Z,792.43
2017-11-25T00:47:10.761Z,792.41
2017-11-25T00:47:15.040Z,792.43
2017-11-25T00:47:19.422Z,792.45
2017-11-25T00:47:23.480Z,792.44
2017-11-25T00:47:27.727Z,792.41
2017-11-25T00:47:31.999Z,792.41
2017-11-25T00:47:36.145Z,792.38
2017-11-25T00:47:40.414Z,792.4
2017-11-25T00:47:44.794Z,792.41
2017-11-25T00:47:49.152Z,792.38
2017-11-25T00:47:53.534Z,792.37
2017-11-25T00:47:57.940Z,792.37
2017-11-25T00:48:02.506Z,792.35
2017-11-25T00:48:06.807Z,792.36
2017-11-25T00:48:10.745Z,792.33
2017-11-25T00:48:14.920Z,792.3
2017-11-25T00:48:19.085Z,792.29
2017-11-25T00:48:23.358Z,792.29
2017-11-25T00:48:27.613Z,792.29
2017-11-25T00:48:31.775Z,792.33
2017-11-25T00:48:36.054Z,792.32
2017-11-25T00:48:40.428Z,792.32
2017-11-25T00:48:44.701Z,792.26
2017-11-25T00:48:48.983Z,792.28
2017-11-25T00:48:53.393Z,792.28
2017-11-25T00:48:57.767Z,792.29
2017-11-25T00:49:01.806Z,792.26
2017-11-25T00:49:06.090Z,792.25
2017-11-25T00:49:10.479Z,792.27
2017-11-25T00:49:14.767Z,792.24
2017-11-25T00:49:19.179Z,792.25
2017-11-25T00:49:23.449Z,792.21
2017-11-25T00:49:27.709Z,792.22
2017-11-25T00:49:31.991Z,792.21
2017-11-25T00:49:36.269Z,792.24
2017-11-25T00:49:40.438Z,792.21
2017-11-25T00:49:44.690Z,792.21
2017-11-25T00:49:49.045Z,792.21
2017-11-25T00:49:53.429Z,792.19
2017-11-25T00:49:57.805Z,792.17
2017-11-25T00:50:02.423Z,792.21
2017-11-25T00:50:06.704Z,792.2
2017-11-25T00:50:10.857Z,792.16
2017-11-25T00:50:15.005Z,792.16
2017-11-25T00:50:19.062Z,792.16
2017-11-25T00:50:23.435Z,792.17
2017-11-25T00:50:27.791Z,792.17
2017-11-25T00:50:32.061Z,792.18
2017-11-25T00:50:36.374Z,792.14
2017-11-25T00:50:40.735Z,792.12
2017-11-25T00:50:45.001Z,792.14
2017-11-25T00:50:49.266Z,792.15
2017-11-25T00:50:53.523Z,792.12
2017-11-25T00:50:57.924Z,792.16
2017-11-25T00:51:02.563Z,792.2
2017-11-25T00:51:06.846Z,792.14
2017-11-25T00:51:11.234Z,792.12
2017-11-25T00:51:15.644Z,792.13
2017-11-25T00:51:19.667Z,792.11
2017-11-25T00:51:24.045Z,792.11
2017-11-25T00:51:28.439Z,792.11
2017-11-25T00:51:32.690Z,792.09
2017-11-25T00:51:36.738Z,792.11
2017-11-25T00:51:41.004Z,792.09
2017-11-25T00:51:45.268Z,792.09
2017-11-25T00:51:49.646Z,792.12
2017-11-25T00:51:53.920Z,792.1
2017-11-25T00:51:58.295Z,792.08
2017-11-25T00:52:02.823Z,792.04
2017-11-25T00:52:07.001Z,792.09
2017-11-25T00:52:11.262Z,792.1
2017-11-25T00:52:15.656Z,792.12
2017-11-25T00:52:20.056Z,792.11
2017-11-25T00:52:24.195Z,792.09
2017-11-25T00:52:28.359Z,792.1
2017-11-25T00:52:32.731Z,792.08
2017-11-25T00:52:36.886Z,792.12
2017-11-25T00:52:41.165Z,792.09
2017-11-25T00:52:45.419Z,792.11
2017-11-25T00:52:49.784Z,792.07
2017-11-25T00:52:54.179Z,792.1
2017-11-25T00:52:58.346Z,792.09
2017-11-25T00:53:03.012Z,792.08
2017-11-25T00:53:07.298Z,792.08
2017-11-25T00:53:11.575Z,792.09
2017-11-25T00:53:15.950Z,792.09
2017-11-25T00:53:20.358Z,792.09
2017-11-25T00:53:24.771Z,792.11
2017-11-25T00:53:29.040Z,792.06
2017-11-25T00:53:33.430Z,792.09
2017-11-25T00:53:37.683Z,792.07